Time;durP1;ratioP1;P1;durP2;ratioP2;P2;SDS_P1;SDS_P2;PMS_P1;PMS_P2;Temp;Humidity;BMP_temperature;BMP_pressure;BME280_temperature;BME280_humidity;BME280_pressure;Samples;Min_cycle;Max_cycle;Signal;HPM_P1;HPM_P2
2021/06/13 00:02:29;;;;;;;29.40;12.98;;;19.80;99.90;;;;;;4883367;29;20063;-85
2021/06/13 00:05:06;;;;;;;28.40;13.05;;;18.70;99.90;;;;;;4865171;29;20050;-87
2021/06/13 00:07:38;;;;;;;28.63;12.23;;;18.70;99.90;;;;;;4865099;29;20069;-87
2021/06/13 00:10:14;;;;;;;26.75;12.75;;;18.70;99.90;;;;;;4851558;29;20049;-86
2021/06/13 00:13:00;;;;;;;28.38;12.63;;;18.70;99.90;;;;;;4898504;29;20072;-86
2021/06/13 00:15:32;;;;;;;23.45;11.25;;;18.60;99.90;;;;;;4883019;29;20057;-86
2021/06/13 00:18:49;;;;;;;32.20;13.57;;;18.60;99.90;;;;;;4883066;29;20049;-86
2021/06/13 00:21:33;;;;;;;26.48;12.40;;;18.50;99.90;;;;;;4881519;29;20055;-87
2021/06/13 00:24:07;;;;;;;27.15;13.88;;;18.40;99.90;;;;;;4898344;29;20600;-85
2021/06/13 00:26:42;;;;;;;26.17;12.60;;;18.30;99.90;;;;;;4882003;29;20076;-87
2021/06/13 00:29:12;;;;;;;32.72;12.95;;;18.30;99.90;;;;;;4888292;29;20436;-85
2021/06/13 00:31:52;;;;;;;28.17;12.75;;;18.20;99.90;;;;;;4880321;29;20063;-84
2021/06/13 00:34:24;;;;;;;28.77;14.23;;;18.20;99.90;;;;;;4862434;29;20056;-85
2021/06/13 00:37:01;;;;;;;28.10;15.98;;;18.10;99.90;;;;;;4864703;29;20068;-85
2021/06/13 00:39:39;;;;;;;32.15;15.68;;;18.10;99.90;;;;;;4886120;29;20049;-86
2021/06/13 00:42:13;;;;;;;37.83;15.60;;;18.10;99.90;;;;;;4882033;29;20053;-86
2021/06/13 00:44:46;;;;;;;32.72;17.02;;;18.00;99.90;;;;;;4885099;29;20137;-85
2021/06/13 00:47:17;;;;;;;28.80;14.15;;;17.80;99.90;;;;;;4899195;29;20053;-85
2021/06/13 00:49:49;;;;;;;25.75;14.63;;;18.00;99.90;;;;;;4892817;29;20073;-86
2021/06/13 00:52:23;;;;;;;29.95;16.58;;;18.00;99.90;;;;;;4891858;29;20045;-85
2021/06/13 00:54:59;;;;;;;24.25;15.68;;;18.00;99.90;;;;;;4867305;29;20055;-85
2021/06/13 00:57:32;;;;;;;26.58;15.45;;;18.00;99.90;;;;;;4889781;29;20058;-86
2021/06/13 01:00:06;;;;;;;33.08;13.82;;;17.90;99.90;;;;;;4879972;29;20053;-87
2021/06/13 01:02:49;;;;;;;32.55;15.93;;;17.90;99.90;;;;;;4879152;29;20080;-84
2021/06/13 01:05:51;;;;;;;28.75;14.43;;;17.90;99.90;;;;;;4896216;29;20044;-85
2021/06/13 01:08:30;;;;;;;32.55;16.88;;;17.80;99.90;;;;;;4885008;29;20052;-86
2021/06/13 01:11:17;;;;;;;34.70;13.95;;;17.80;99.90;;;;;;4882970;29;20539;-84
2021/06/13 01:14:26;;;;;;;37.30;16.90;;;17.80;99.90;;;;;;4862852;29;20048;-84
2021/06/13 01:17:21;;;;;;;40.50;15.07;;;17.70;99.90;;;;;;4879260;29;20083;-85
2021/06/13 01:20:06;;;;;;;36.38;15.38;;;17.70;99.90;;;;;;4882777;29;20053;-86
2021/06/13 01:23:05;;;;;;;25.13;13.50;;;17.70;99.90;;;;;;4879497;29;20065;-85
2021/06/13 01:26:36;;;;;;;27.10;14.63;;;17.60;99.90;;;;;;4864545;29;20049;-86
2021/06/13 01:29:43;;;;;;;40.58;15.90;;;17.70;99.90;;;;;;4895125;29;20063;-89
2021/06/13 01:32:24;;;;;;;31.15;15.38;;;17.60;99.90;;;;;;4892662;29;20071;-88
2021/06/13 01:35:02;;;;;;;33.28;14.13;;;17.50;99.90;;;;;;4892530;29;20049;-86
2021/06/13 01:37:39;;;;;;;28.48;13.95;;;17.20;99.90;;;;;;4847993;29;20061;-87
2021/06/13 01:40:12;;;;;;;30.08;13.48;;;17.40;99.90;;;;;;4876620;29;20441;-85
2021/06/13 01:42:55;;;;;;;28.15;14.48;;;17.40;99.90;;;;;;4871897;29;20049;-89
2021/06/13 01:45:33;;;;;;;32.60;14.00;;;16.40;99.90;;;;;;4881615;29;20063;-86
2021/06/13 01:48:12;;;;;;;31.20;14.15;;;17.30;99.90;;;;;;4861276;29;20088;-87
2021/06/13 01:50:46;;;;;;;35.85;14.73;;;17.20;99.90;;;;;;4882867;29;20080;-86
2021/06/13 01:53:20;;;;;;;26.92;13.40;;;17.70;99.90;;;;;;4899737;29;20072;-88
2021/06/13 01:55:52;;;;;;;34.40;14.20;;;17.10;99.90;;;;;;4894154;29;20064;-86
2021/06/13 01:58:28;;;;;;;36.70;15.43;;;17.10;99.90;;;;;;4872017;29;20045;-84
2021/06/13 02:01:10;;;;;;;27.25;13.27;;;17.00;99.90;;;;;;4870980;29;20051;-85
2021/06/13 02:03:54;;;;;;;24.45;14.07;;;17.00;99.90;;;;;;4886831;29;20052;-86
2021/06/13 02:06:58;;;;;;;29.75;13.82;;;16.10;99.90;;;;;;4863044;29;20072;-88
2021/06/13 02:09:48;;;;;;;33.40;11.60;;;17.00;99.90;;;;;;4886473;29;20053;-85
2021/06/13 02:12:24;;;;;;;32.65;12.43;;;16.90;99.90;;;;;;4883757;29;20068;-85
2021/06/13 02:15:04;;;;;;;30.45;13.07;;;16.60;99.90;;;;;;4891127;29;20053;-86
2021/06/13 02:17:45;;;;;;;36.38;14.13;;;16.90;99.90;;;;;;4890028;29;20068;-86
2021/06/13 02:20:30;;;;;;;27.35;12.95;;;16.90;99.90;;;;;;4863396;29;20045;-85
2021/06/13 02:23:01;;;;;;;29.75;13.52;;;16.90;99.90;;;;;;4858545;29;20053;-85
2021/06/13 02:25:31;;;;;;;29.67;13.40;;;16.90;99.90;;;;;;4887861;29;20061;-85
2021/06/13 02:28:08;;;;;;;29.63;14.00;;;16.80;99.90;;;;;;4888447;29;20053;-87
2021/06/13 02:30:49;;;;;;;33.08;13.32;;;16.80;99.90;;;;;;4868973;29;20412;-86
2021/06/13 02:33:22;;;;;;;24.65;13.40;;;16.80;99.90;;;;;;4857152;29;20701;-85
2021/06/13 02:35:59;;;;;;;38.35;18.90;;;16.80;99.90;;;;;;4887724;29;20664;-87
2021/06/13 02:38:30;;;;;;;28.98;13.40;;;16.80;99.90;;;;;;4900177;29;20056;-88
2021/06/13 02:41:04;;;;;;;26.25;12.50;;;16.80;99.90;;;;;;4891811;29;20053;-86
2021/06/13 02:43:33;;;;;;;26.38;11.52;;;16.70;99.90;;;;;;4849996;29;20067;-88
2021/06/13 02:46:03;;;;;;;26.50;11.95;;;16.70;99.90;;;;;;4870924;29;20049;-87
2021/06/13 02:48:31;;;;;;;26.83;12.95;;;16.60;99.90;;;;;;4871374;29;20056;-88
2021/06/13 02:51:03;;;;;;;27.00;14.63;;;16.40;99.90;;;;;;4869277;29;20054;-87
2021/06/13 02:53:48;;;;;;;25.65;12.00;;;16.30;99.90;;;;;;4864676;29;20065;-87
2021/06/13 02:56:35;;;;;;;26.77;13.10;;;16.20;99.90;;;;;;4865206;29;20060;-87
2021/06/13 02:59:31;;;;;;;29.43;14.37;;;16.10;99.90;;;;;;4873624;29;20060;-86
2021/06/13 03:02:06;;;;;;;24.45;12.50;;;16.00;99.90;;;;;;4876083;29;20061;-86
2021/06/13 03:04:38;;;;;;;34.28;12.48;;;15.90;99.90;;;;;;4849063;29;20063;-87
2021/06/13 03:07:21;;;;;;;20.88;12.57;;;15.90;99.90;;;;;;4867659;29;20303;-86
2021/06/13 03:10:03;;;;;;;23.00;11.45;;;15.80;99.90;;;;;;4901716;29;20057;-85
2021/06/13 03:12:35;;;;;;;25.13;12.90;;;15.70;99.90;;;;;;4884669;29;20057;-85
2021/06/13 03:15:11;;;;;;;24.67;12.63;;;15.60;99.90;;;;;;4873561;29;20057;-86
2021/06/13 03:17:43;;;;;;;21.83;12.13;;;15.50;99.90;;;;;;4881642;29;20084;-85
2021/06/13 03:20:14;;;;;;;23.63;14.20;;;15.50;99.90;;;;;;4874325;29;20057;-86
2021/06/13 03:22:45;;;;;;;31.90;14.53;;;15.50;99.90;;;;;;4862692;29;20058;-86
2021/06/13 03:25:19;;;;;;;21.65;13.13;;;15.40;99.90;;;;;;4869874;29;20049;-86
2021/06/13 03:27:50;;;;;;;30.05;13.38;;;15.40;99.90;;;;;;4841215;29;20056;-86
2021/06/13 03:30:22;;;;;;;27.27;12.13;;;15.30;99.90;;;;;;4887275;29;20068;-85
2021/06/13 03:33:03;;;;;;;24.77;11.73;;;15.30;99.90;;;;;;4868278;29;20481;-87
2021/06/13 03:35:39;;;;;;;31.38;13.75;;;15.30;99.90;;;;;;4869874;29;20059;-86
2021/06/13 03:38:09;;;;;;;22.95;12.63;;;15.30;99.90;;;;;;4865211;29;20062;-87
2021/06/13 03:40:41;;;;;;;26.52;13.80;;;15.30;99.90;;;;;;4882997;29;20060;-85
2021/06/13 03:43:11;;;;;;;24.23;11.55;;;15.30;99.90;;;;;;4870648;29;20053;-84
2021/06/13 03:45:43;;;;;;;26.20;13.02;;;15.20;99.90;;;;;;4874053;29;20060;-86
2021/06/13 03:48:15;;;;;;;24.00;11.95;;;15.20;99.90;;;;;;4858509;29;20052;-86
2021/06/13 03:50:48;;;;;;;26.92;12.82;;;15.10;99.90;;;;;;4882813;29;20072;-85
2021/06/13 03:53:22;;;;;;;30.45;14.80;;;15.10;99.90;;;;;;4875748;29;20045;-85
2021/06/13 03:55:53;;;;;;;24.80;12.85;;;15.10;99.90;;;;;;4880411;29;20062;-86
2021/06/13 03:58:25;;;;;;;26.90;13.65;;;15.10;99.90;;;;;;4860197;29;20066;-86
2021/06/13 04:01:00;;;;;;;25.65;14.20;;;14.80;99.90;;;;;;4880883;29;20049;-87
2021/06/13 04:03:32;;;;;;;25.83;12.23;;;15.00;99.90;;;;;;4894247;29;20405;-85
2021/06/13 04:06:09;;;;;;;20.60;12.90;;;15.00;99.90;;;;;;4871192;29;20057;-85
2021/06/13 04:08:42;;;;;;;33.45;14.77;;;14.90;99.90;;;;;;4861227;29;20045;-86
2021/06/13 04:11:14;;;;;;;27.60;13.70;;;14.90;99.90;;;;;;4874072;29;20057;-85
2021/06/13 04:13:43;;;;;;;25.30;12.10;;;14.90;99.90;;;;;;4888852;29;20052;-85
2021/06/13 04:16:19;;;;;;;26.70;13.90;;;14.90;99.90;;;;;;4891825;29;20053;-85
2021/06/13 04:18:52;;;;;;;24.08;13.68;;;14.90;99.90;;;;;;4875194;29;20064;-86
2021/06/13 04:21:23;;;;;;;29.60;15.18;;;13.60;99.90;;;;;;4857662;29;20045;-86
2021/06/13 04:23:59;;;;;;;25.90;12.90;;;15.00;99.90;;;;;;4861312;29;20057;-86
2021/06/13 04:26:34;;;;;;;28.98;13.20;;;15.00;99.90;;;;;;4868559;29;20052;-87
2021/06/13 04:29:07;;;;;;;29.98;13.85;;;15.10;99.90;;;;;;4876812;29;20634;-86
2021/06/13 04:31:36;;;;;;;33.60;13.20;;;15.10;99.90;;;;;;4860540;29;20052;-86
2021/06/13 04:34:07;;;;;;;30.70;14.10;;;15.20;99.90;;;;;;4879292;29;20481;-86
2021/06/13 04:36:45;;;;;;;25.63;12.23;;;15.20;99.90;;;;;;4892399;29;20045;-86
2021/06/13 04:39:15;;;;;;;24.73;13.32;;;15.20;99.90;;;;;;4898100;29;20053;-86
2021/06/13 04:41:46;;;;;;;28.13;13.50;;;15.10;99.90;;;;;;4879879;29;20057;-85
2021/06/13 04:44:16;;;;;;;26.02;12.52;;;15.20;99.90;;;;;;4876363;29;20060;-86
2021/06/13 04:46:59;;;;;;;30.98;13.70;;;15.20;99.90;;;;;;4893336;29;20067;-86
2021/06/13 04:49:45;;;;;;;24.13;13.23;;;15.20;99.90;;;;;;4875531;29;20057;-87
2021/06/13 04:52:17;;;;;;;31.77;15.55;;;15.30;99.90;;;;;;4846331;29;20152;-86
2021/06/13 04:55:05;;;;;;;28.90;14.05;;;15.30;99.90;;;;;;4868920;29;20427;-85
2021/06/13 04:58:07;;;;;;;33.95;15.40;;;15.30;99.90;;;;;;4854533;29;20064;-85
2021/06/13 05:00:35;;;;;;;29.02;15.38;;;15.40;99.90;;;;;;4878910;29;20064;-85
2021/06/13 05:03:07;;;;;;;28.60;16.02;;;15.40;99.90;;;;;;4886780;29;20052;-88
2021/06/13 05:05:38;;;;;;;28.27;16.40;;;15.50;99.90;;;;;;4890247;29;20498;-87
2021/06/13 05:08:13;;;;;;;27.00;15.25;;;15.50;99.90;;;;;;4874247;29;20057;-85
2021/06/13 05:10:48;;;;;;;29.50;15.20;;;15.60;99.90;;;;;;4872342;29;20045;-85
2021/06/13 05:13:18;;;;;;;37.63;17.17;;;15.70;99.90;;;;;;4873856;29;20576;-86
2021/06/13 05:15:48;;;;;;;31.90;18.50;;;15.80;99.90;;;;;;4872125;29;20053;-85
2021/06/13 05:18:17;;;;;;;33.30;17.00;;;15.90;99.90;;;;;;4859882;29;20068;-87
2021/06/13 05:20:52;;;;;;;33.25;15.15;;;16.00;99.90;;;;;;4872478;29;20073;-86
2021/06/13 05:23:26;;;;;;;30.38;16.17;;;16.10;99.90;;;;;;4887805;29;20064;-88
2021/06/13 05:26:09;;;;;;;36.63;16.33;;;16.20;99.90;;;;;;4874652;29;20053;-87
2021/06/13 05:28:39;;;;;;;40.72;16.08;;;16.30;99.90;;;;;;4873457;29;20058;-85
2021/06/13 05:31:13;;;;;;;29.35;16.27;;;16.40;99.90;;;;;;4837787;29;20049;-85
2021/06/13 05:33:44;;;;;;;27.77;15.55;;;16.40;99.90;;;;;;4896086;29;20523;-86
2021/06/13 05:36:15;;;;;;;30.88;15.85;;;16.50;99.90;;;;;;4883342;29;20052;-86
2021/06/13 05:38:47;;;;;;;29.70;15.57;;;16.60;99.90;;;;;;4882441;29;20060;-86
2021/06/13 05:41:18;;;;;;;40.25;17.50;;;16.60;99.90;;;;;;4884267;29;20052;-86
2021/06/13 05:46:55;;;;;;;34.33;14.70;;;16.70;99.90;;;;;;4888827;29;20049;-85
2021/06/13 05:49:26;;;;;;;31.80;15.98;;;16.80;99.90;;;;;;4854738;29;20057;-86
2021/06/13 05:51:56;;;;;;;34.13;17.40;;;16.90;99.90;;;;;;4856693;29;20060;-86
2021/06/13 05:54:28;;;;;;;26.67;14.13;;;17.00;99.90;;;;;;4868270;29;20052;-87
2021/06/13 05:57:00;;;;;;;32.72;15.35;;;17.10;99.90;;;;;;4855159;29;20531;-87
2021/06/13 05:59:32;;;;;;;29.35;13.85;;;17.20;99.90;;;;;;4865698;29;20084;-86
2021/06/13 06:02:08;;;;;;;25.77;12.82;;;17.40;99.90;;;;;;4851706;29;20068;-86
2021/06/13 06:04:38;;;;;;;30.02;14.13;;;17.30;99.90;;;;;;4874535;29;20064;-87
2021/06/13 06:07:08;;;;;;;34.53;12.43;;;17.40;99.90;;;;;;4881085;29;20052;-86
2021/06/13 06:09:37;;;;;;;;;;;17.50;99.90;;;;;;4866811;29;20048;-87
2021/06/13 06:12:07;;;;;;;23.25;12.10;;;17.50;99.90;;;;;;4885730;29;19930;-86
2021/06/13 06:14:37;;;;;;;20.25;10.25;;;17.60;99.90;;;;;;4884013;29;20064;-85
2021/06/13 06:17:06;;;;;;;24.10;10.85;;;17.50;99.90;;;;;;4862998;29;20084;-86
2021/06/13 06:19:39;;;;;;;24.17;11.93;;;17.80;99.90;;;;;;4880443;29;20053;-87
2021/06/13 06:22:11;;;;;;;21.45;10.23;;;17.80;99.90;;;;;;4883366;29;20054;-86
2021/06/13 06:24:44;;;;;;;20.33;10.20;;;17.90;99.90;;;;;;4832529;29;20056;-84
2021/06/13 06:27:12;;;;;;;25.73;11.10;;;18.00;99.90;;;;;;4869443;29;20057;-87
2021/06/13 06:29:41;;;;;;;21.63;11.23;;;18.00;99.90;;;;;;4865554;29;20306;-86
2021/06/13 06:32:13;;;;;;;22.70;10.05;;;18.10;99.90;;;;;;4871605;29;20399;-86
2021/06/13 06:34:44;;;;;;;24.85;11.48;;;18.20;99.90;;;;;;4870936;29;20057;-85
2021/06/13 06:37:13;;;;;;;18.52;8.88;;;18.30;99.90;;;;;;4886319;29;20056;-86
2021/06/13 06:39:44;;;;;;;17.35;9.05;;;18.30;99.90;;;;;;4868515;29;20547;-86
2021/06/13 06:42:15;;;;;;;25.25;10.35;;;18.40;99.90;;;;;;4871656;29;20053;-86
2021/06/13 06:44:47;;;;;;;17.33;8.38;;;18.50;99.90;;;;;;4868403;29;20041;-86
2021/06/13 06:47:17;;;;;;;22.05;9.30;;;18.50;99.90;;;;;;4854666;29;20049;-85
2021/06/13 06:49:47;;;;;;;22.48;8.02;;;18.60;99.90;;;;;;4867009;29;20069;-85
2021/06/13 06:52:18;;;;;;;18.80;6.53;;;18.70;99.90;;;;;;4850307;29;20061;-86
2021/06/13 06:54:51;;;;;;;15.38;6.20;;;18.80;99.90;;;;;;4861689;29;20068;-86
2021/06/13 06:57:22;;;;;;;13.65;6.50;;;18.80;99.90;;;;;;4883365;29;20068;-84
2021/06/13 06:59:54;;;;;;;16.90;5.95;;;18.90;99.90;;;;;;4876686;29;20058;-87
2021/06/13 07:02:22;;;;;;;12.10;6.68;;;19.00;99.90;;;;;;4899072;29;20052;-86
2021/06/13 07:04:53;;;;;;;12.30;5.35;;;19.10;99.90;;;;;;4886623;29;20489;-85
2021/06/13 07:07:27;;;;;;;13.27;6.40;;;19.10;99.90;;;;;;4873334;29;20661;-85
2021/06/13 07:09:58;;;;;;;13.30;5.05;;;19.20;99.90;;;;;;4852092;29;20865;-83
2021/06/13 07:12:29;;;;;;;11.20;4.30;;;19.30;99.90;;;;;;4866143;29;20058;-84
2021/06/13 07:15:01;;;;;;;15.30;5.57;;;19.40;99.90;;;;;;4864400;29;20061;-85
2021/06/13 07:17:33;;;;;;;12.13;5.22;;;19.40;99.90;;;;;;4866141;29;20518;-86
2021/06/13 07:20:08;;;;;;;10.55;4.68;;;19.50;99.90;;;;;;4883745;29;20057;-85
2021/06/13 07:22:38;;;;;;;6.03;3.28;;;19.50;99.90;;;;;;4869111;29;20058;-86
2021/06/13 07:25:07;;;;;;;15.88;4.47;;;19.60;99.90;;;;;;4871400;29;20056;-87
2021/06/13 07:27:37;;;;;;;8.90;2.78;;;19.70;99.90;;;;;;4857857;29;20053;-86
2021/06/13 07:30:24;;;;;;;5.18;3.72;;;19.40;99.90;;;;;;4874944;29;20068;-85
2021/06/13 07:33:05;;;;;;;;;;;19.80;99.90;;;;;;4874704;29;20069;-86
2021/06/13 07:36:00;;;;;;;6.10;1.77;;;19.80;99.90;;;;;;4873082;29;19938;-86
2021/06/13 07:38:35;;;;;;;9.93;5.00;;;19.90;99.90;;;;;;4887950;29;20091;-87
2021/06/13 07:41:05;;;;;;;2.25;1.30;;;20.00;99.90;;;;;;4857775;29;20132;-86
2021/06/13 07:43:56;;;;;;;7.67;1.93;;;20.10;99.90;;;;;;4870005;29;20053;-87
2021/06/13 07:46:27;;;;;;;5.32;2.15;;;20.20;99.90;;;;;;4862964;29;20053;-85
2021/06/13 07:48:57;;;;;;;5.88;2.45;;;20.20;99.90;;;;;;4860855;29;20041;-86
2021/06/13 07:51:26;;;;;;;8.35;3.03;;;20.30;99.90;;;;;;4855020;29;20058;-86
2021/06/13 07:54:17;;;;;;;5.28;2.60;;;20.40;99.90;;;;;;4871112;29;20060;-86
2021/06/13 07:56:51;;;;;;;8.45;2.80;;;20.40;99.90;;;;;;4860602;29;20131;-87
2021/06/13 07:59:36;;;;;;;7.55;3.30;;;20.50;99.90;;;;;;4852609;29;20481;-86
2021/06/13 08:02:07;;;;;;;6.15;2.80;;;20.50;99.90;;;;;;4872161;29;20064;-86
2021/06/13 08:04:46;;;;;;;8.52;3.55;;;20.60;99.90;;;;;;4886857;29;20053;-88
2021/06/13 08:07:16;;;;;;;10.50;3.63;;;20.60;99.90;;;;;;4856852;29;20057;-86
2021/06/13 08:09:54;;;;;;;8.70;3.42;;;20.70;99.90;;;;;;4856949;29;20057;-86
2021/06/13 08:12:25;;;;;;;8.40;3.70;;;20.70;99.90;;;;;;4874042;29;20053;-86
2021/06/13 08:14:55;;;;;;;7.72;3.22;;;20.80;99.90;;;;;;4858780;29;20073;-86
2021/06/13 08:17:27;;;;;;;9.88;3.88;;;20.90;99.90;;;;;;4844887;29;20050;-86
2021/06/13 08:20:04;;;;;;;6.55;3.30;;;20.90;99.90;;;;;;4876681;29;20064;-86
2021/06/13 08:22:35;;;;;;;10.48;4.07;;;21.00;99.90;;;;;;4859065;29;20587;-86
2021/06/13 08:25:06;;;;;;;10.27;5.22;;;21.00;99.90;;;;;;4874127;29;20063;-86
2021/06/13 08:27:36;;;;;;;7.43;3.28;;;21.00;99.90;;;;;;4855549;29;20067;-86
2021/06/13 08:30:12;;;;;;;7.65;4.15;;;21.10;99.90;;;;;;4862166;29;20065;-86
2021/06/13 08:32:45;;;;;;;8.63;3.00;;;21.20;99.90;;;;;;4863900;29;20050;-87
2021/06/13 08:35:15;;;;;;;4.32;2.58;;;21.20;99.70;;;;;;4857259;29;20076;-86
2021/06/13 08:37:49;;;;;;;11.07;3.15;;;21.30;99.80;;;;;;4855661;29;20049;-86
2021/06/13 08:40:20;;;;;;;8.75;3.88;;;21.50;99.60;;;;;;4849392;29;20057;-87
2021/06/13 08:42:49;;;;;;;9.75;3.30;;;21.50;99.50;;;;;;4855976;29;20052;-86
2021/06/13 08:45:20;;;;;;;7.15;3.35;;;21.30;99.10;;;;;;4858749;29;20050;-86
2021/06/13 08:47:54;;;;;;;8.03;3.90;;;21.70;98.80;;;;;;4863145;29;20057;-86
2021/06/13 08:50:25;;;;;;;5.47;3.30;;;21.70;98.40;;;;;;4878038;29;20063;-87
2021/06/13 08:52:58;;;;;;;6.90;3.13;;;21.80;98.30;;;;;;4878703;29;20053;-87
2021/06/13 08:55:35;;;;;;;7.70;3.85;;;21.80;98.20;;;;;;4875486;29;20045;-88
2021/06/13 08:58:14;;;;;;;10.40;3.97;;;22.00;98.20;;;;;;4875214;29;20064;-88
2021/06/13 09:01:06;;;;;;;5.78;3.05;;;21.90;97.90;;;;;;4875301;29;20046;-86
2021/06/13 09:03:39;;;;;;;19.52;4.43;;;22.00;97.80;;;;;;4880897;29;20052;-87
2021/06/13 09:06:11;;;;;;;9.43;3.67;;;22.00;98.00;;;;;;4852118;29;20410;-85
2021/06/13 09:08:42;;;;;;;11.73;3.83;;;22.20;98.00;;;;;;4867196;29;20056;-85
2021/06/13 09:11:55;;;;;;;8.30;4.25;;;22.10;97.70;;;;;;4887752;29;20063;-87
2021/06/13 09:14:32;;;;;;;8.27;3.70;;;22.30;97.20;;;;;;4886905;29;20060;-88
2021/06/13 09:17:12;;;;;;;9.68;3.83;;;22.30;97.40;;;;;;4843313;29;20405;-87
2021/06/13 09:20:00;;;;;;;;;;;22.40;96.70;;;;;;4885275;29;20053;-86
2021/06/13 09:22:30;;;;;;;8.40;4.03;;;22.40;96.80;;;;;;4890654;29;20639;-87
2021/06/13 09:25:15;;;;;;;11.38;4.30;;;22.50;97.10;;;;;;4876330;29;20061;-87
2021/06/13 09:28:07;;;;;;;7.22;3.17;;;22.50;96.90;;;;;;4862479;29;20071;-89
2021/06/13 09:30:51;;;;;;;10.05;4.30;;;22.60;96.40;;;;;;4869483;29;20033;-85
2021/06/13 09:34:02;;;;;;;11.85;4.45;;;22.70;96.90;;;;;;4870225;29;20055;-89
2021/06/13 09:36:40;;;;;;;9.10;3.77;;;22.90;96.70;;;;;;4841043;29;20053;-90
2021/06/13 09:39:51;;;;;;;6.38;4.05;;;22.90;96.30;;;;;;4878870;29;20038;-90
2021/06/13 09:42:30;;;;;;;9.95;4.60;;;23.00;96.20;;;;;;4868223;29;20075;-90
2021/06/13 09:45:25;;;;;;;11.82;4.32;;;23.10;96.20;;;;;;4881201;29;20065;-90
2021/06/13 09:48:20;;;;;;;7.90;4.05;;;23.20;96.30;;;;;;4873899;29;20541;-91
2021/06/13 09:51:35;;;;;;;6.72;3.22;;;23.10;96.10;;;;;;4882409;29;20056;-90
2021/06/13 09:54:35;;;;;;;10.73;3.83;;;23.20;96.00;;;;;;4869689;29;20934;-89
2021/06/13 09:58:16;;;;;;;7.60;3.60;;;23.30;95.80;;;;;;4858893;29;20045;-90
2021/06/13 10:01:11;;;;;;;8.00;3.53;;;23.40;95.90;;;;;;4885833;29;20045;-91
2021/06/13 10:04:39;;;;;;;;;;;;;;;;;;;;;
2021/06/13 10:07:42;;;;;;;6.53;3.45;;;23.80;95.60;;;;;;4846155;29;20049;-88
2021/06/13 10:11:06;;;;;;;12.57;4.40;;;23.80;95.40;;;;;;4835981;29;20089;-91
2021/06/13 10:14:04;;;;;;;13.65;3.92;;;23.90;94.50;;;;;;4836698;29;20057;-90
2021/06/13 10:17:17;;;;;;;10.05;3.70;;;23.90;94.70;;;;;;4883869;29;20055;-91
2021/06/13 10:20:37;;;;;;;5.80;3.47;;;24.00;94.00;;;;;;4875096;29;20057;-90
2021/06/13 10:24:08;;;;;;;7.25;3.67;;;24.00;94.40;;;;;;4869982;29;20058;-90
2021/06/13 10:27:11;;;;;;;10.45;4.68;;;23.90;94.10;;;;;;4862486;29;20050;-90
2021/06/13 10:30:35;;;;;;;9.45;3.90;;;24.20;93.90;;;;;;4862305;29;20046;-90
2021/06/13 10:33:37;;;;;;;11.52;4.30;;;24.30;93.70;;;;;;4872372;29;20061;-91
2021/06/13 10:36:37;;;;;;;7.07;3.75;;;24.60;93.80;;;;;;4861709;29;20065;-91
2021/06/13 10:40:20;;;;;;;15.70;3.85;;;23.80;93.40;;;;;;4872165;29;20056;-91
2021/06/13 10:43:36;;;;;;;7.03;3.78;;;25.00;93.10;;;;;;4858536;29;20072;-90
2021/06/13 10:46:28;;;;;;;6.30;3.72;;;25.20;93.00;;;;;;4877825;29;20511;-89
2021/06/13 10:49:10;;;;;;;15.82;3.15;;;25.40;93.00;;;;;;4878862;29;20064;-90
2021/06/13 10:53:00;;;;;;;10.93;3.92;;;25.60;92.70;;;;;;4864036;29;20042;-87
2021/06/13 10:56:16;;;;;;;9.30;3.50;;;25.60;91.90;;;;;;4866340;29;20262;-90
2021/06/13 10:59:21;;;;;;;7.35;3.30;;;25.60;92.10;;;;;;4874037;29;20045;-89
2021/06/13 11:02:21;;;;;;;10.65;3.45;;;25.80;91.60;;;;;;4854657;29;20513;-89
2021/06/13 11:05:42;;;;;;;12.70;5.00;;;26.00;91.90;;;;;;4851169;29;20498;-87
2021/06/13 11:09:04;;;;;;;9.95;3.92;;;26.10;91.50;;;;;;4868014;29;20054;-88
2021/06/13 11:11:55;;;;;;;8.50;3.33;;;26.30;90.80;;;;;;4869948;29;20061;-88
2021/06/13 11:14:54;;;;;;;9.65;4.20;;;26.50;91.10;;;;;;4868109;29;20042;-89
2021/06/13 11:17:53;;;;;;;11.60;4.07;;;26.60;90.60;;;;;;4871646;29;20053;-88
2021/06/13 11:23:48;;;;;;;9.35;3.80;;;26.70;90.60;;;;;;4861037;29;20053;-88
2021/06/13 11:26:45;;;;;;;5.78;3.17;;;26.90;89.00;;;;;;4865520;29;20062;-89
2021/06/13 11:29:59;;;;;;;8.35;3.38;;;26.80;87.50;;;;;;4828069;29;20414;-89
2021/06/13 11:37:27;;;;;;;8.73;3.63;;;27.10;87.40;;;;;;4067596;27;20148;-90
2021/06/13 11:40:49;;;;;;;9.05;4.00;;;27.30;87.20;;;;;;4922194;29;20059;-92
2021/06/13 11:44:08;;;;;;;12.43;4.30;;;27.30;86.70;;;;;;4924150;29;20051;-91
2021/06/13 11:46:49;;;;;;;8.70;3.55;;;27.30;86.00;;;;;;4914710;29;20058;-92
2021/06/13 11:50:03;;;;;;;9.40;3.70;;;27.30;86.90;;;;;;4914765;29;20039;-90
2021/06/13 11:53:45;;;;;;;7.60;3.50;;;27.40;85.60;;;;;;4913104;29;20054;-90
2021/06/13 11:56:40;;;;;;;6.57;3.75;;;27.60;85.50;;;;;;4901977;29;20064;-91
2021/06/13 11:59:35;;;;;;;6.32;3.58;;;28.20;85.50;;;;;;4914293;29;20059;-90
2021/06/13 12:02:27;;;;;;;5.32;3.78;;;27.90;84.90;;;;;;4895240;29;20044;-90
2021/06/13 12:05:12;;;;;;;6.07;3.55;;;28.00;84.40;;;;;;4866467;29;20052;-93
2021/06/13 12:08:02;;;;;;;9.50;5.05;;;27.90;83.90;;;;;;4898546;29;20044;-91
2021/06/13 12:10:47;;;;;;;7.57;4.60;;;27.90;83.60;;;;;;4886749;29;20040;-91
2021/06/13 12:13:26;;;;;;;7.85;4.32;;;28.00;84.00;;;;;;4888831;29;20063;-92
2021/06/13 12:15:58;;;;;;;7.25;3.47;;;28.20;83.30;;;;;;4899022;29;20067;-91
2021/06/13 12:19:01;;;;;;;11.63;3.72;;;28.30;83.10;;;;;;4890236;29;20041;-91
2021/06/13 12:21:54;;;;;;;11.10;4.20;;;28.40;82.00;;;;;;4893467;29;20052;-90
2021/06/13 12:27:44;;;;;;;8.45;3.85;;;28.70;82.40;;;;;;4895265;29;20058;-93
2021/06/13 12:30:28;;;;;;;4.85;3.22;;;28.80;81.00;;;;;;4884914;29;20056;-90
2021/06/13 12:33:37;;;;;;;5.05;3.45;;;28.90;80.90;;;;;;4932870;29;20684;-93
2021/06/13 12:36:51;;;;;;;10.45;3.35;;;29.00;79.40;;;;;;4927980;23;20063;-92
2021/06/13 12:39:29;;;;;;;8.27;3.80;;;29.10;80.60;;;;;;4908535;29;20059;-90
2021/06/13 12:42:17;;;;;;;9.18;3.47;;;29.20;80.10;;;;;;4928578;29;20389;-91
2021/06/13 12:44:51;;;;;;;8.20;4.25;;;29.40;78.20;;;;;;4930319;29;20059;-91
2021/06/13 12:47:48;;;;;;;5.72;3.40;;;28.40;78.40;;;;;;4929769;29;20050;-93
2021/06/13 12:50:43;;;;;;;8.02;3.50;;;29.40;77.60;;;;;;4903386;29;20055;-92
2021/06/13 12:53:18;;;;;;;6.88;3.22;;;29.50;78.00;;;;;;4933043;23;20048;-93
2021/06/13 12:56:08;;;;;;;8.43;3.88;;;29.60;78.50;;;;;;4873116;29;20047;-92
2021/06/13 12:59:08;;;;;;;4.75;3.13;;;29.90;77.90;;;;;;4882682;29;20056;-91
2021/06/13 13:01:43;;;;;;;6.63;3.08;;;30.80;78.10;;;;;;4862979;29;20052;-92
2021/06/13 13:04:58;;;;;;;9.45;4.03;;;30.30;76.60;;;;;;4896086;29;20059;-92
2021/06/13 13:07:41;;;;;;;10.10;3.67;;;30.30;76.30;;;;;;4875013;29;20088;-92
2021/06/13 13:10:25;;;;;;;11.07;4.60;;;30.30;76.20;;;;;;4878316;29;20049;-91
2021/06/13 13:13:06;;;;;;;6.97;2.92;;;30.50;76.00;;;;;;4860704;29;20061;-92
2021/06/13 13:15:41;;;;;;;7.78;3.95;;;30.60;76.30;;;;;;4862739;29;20264;-92
2021/06/13 13:18:20;;;;;;;6.13;2.97;;;30.90;76.80;;;;;;4883604;29;20049;-91
2021/06/13 13:21:03;;;;;;;9.23;3.70;;;30.80;75.40;;;;;;4892925;29;20052;-90
2021/06/13 13:23:47;;;;;;;10.82;4.93;;;30.80;75.40;;;;;;4894851;29;20056;-92
2021/06/13 13:26:26;;;;;;;9.90;4.25;;;30.60;75.50;;;;;;4870300;29;20068;-93
2021/06/13 13:29:13;;;;;;;10.10;3.22;;;30.80;75.10;;;;;;4908432;29;20445;-92
2021/06/13 13:31:59;;;;;;;8.15;3.40;;;30.90;74.20;;;;;;4882933;29;20503;-91
2021/06/13 13:34:48;;;;;;;11.43;4.50;;;31.40;75.00;;;;;;4896727;29;20060;-91
2021/06/13 13:37:34;;;;;;;9.50;3.65;;;31.50;73.80;;;;;;4877916;29;20058;-92
2021/06/13 13:40:25;;;;;;;8.20;3.72;;;31.70;73.40;;;;;;4883523;29;20041;-92
2021/06/13 13:43:14;;;;;;;9.70;4.68;;;32.20;73.10;;;;;;4897818;29;20053;-93
2021/06/13 13:46:34;;;;;;;9.35;3.83;;;32.20;72.80;;;;;;4941364;23;20054;-93
2021/06/13 13:49:43;;;;;;;10.70;5.15;;;32.30;71.10;;;;;;4931236;29;20047;-92
2021/06/13 13:52:40;;;;;;;9.45;3.70;;;32.40;70.40;;;;;;4936810;29;20049;-92
2021/06/13 13:55:59;;;;;;;8.88;3.60;;;32.60;71.00;;;;;;4906606;29;20056;-91
2021/06/13 13:58:29;;;;;;;7.22;2.85;;;33.40;70.50;;;;;;4885060;29;20491;-91
2021/06/13 14:01:47;;;;;;;5.00;2.70;;;32.80;70.50;;;;;;4917326;29;20048;-92
2021/06/13 14:04:45;;;;;;;5.93;3.65;;;33.10;68.40;;;;;;4900212;29;20071;-91
2021/06/13 14:07:23;;;;;;;11.32;3.67;;;33.30;68.40;;;;;;4917286;29;20055;-91
2021/06/13 14:10:50;;;;;;;10.60;3.83;;;33.00;68.30;;;;;;4893358;29;20063;-90
2021/06/13 14:13:31;;;;;;;18.70;5.70;;;32.80;67.60;;;;;;4900702;29;20044;-90